CDT,Max TemperatureF,Mean TemperatureF,Min TemperatureF,Max Dew PointF,MeanDew PointF,Min DewpointF,Max Humidity, Mean Humidity, Min Humidity, Max Sea Level PressureIn, Mean Sea Level PressureIn, Min Sea Level PressureIn, Max VisibilityMiles, Mean VisibilityMiles, Min VisibilityMiles, Max Wind SpeedMPH, Mean Wind SpeedMPH, Max Gust SpeedMPH,PrecipitationIn, CloudCover, Events, WindDirDegrees
2011-10-1,87,68,50,45,37,29,52,32,20,30.16,30.08,30.01,10,10,10,14,7,22,0.00,0,,115
2011-10-2,91,74,59,52,44,39,55,37,17,30.21,30.06,29.96,10,10,10,15,8,22,0.00,0,,132
2011-10-3,87,73,60,51,45,39,65,40,19,30.19,30.04,29.96,10,10,10,20,10,28,0.00,0,,132
2011-10-4,84,72,60,54,46,41,61,41,25,30.15,30.00,29.88,10,10,6,22,13,29,0.01,1,Rain,131
2011-10-5,86,73,62,58,55,53,75,57,34,29.96,29.86,29.75,10,10,10,23,16,31,0.00,1,,149
2011-10-6,98,80,64,60,55,37,78,50,13,29.77,29.69,29.56,10,10,10,24,16,50,0.00,0,,151
2011-10-7,91,78,66,63,59,54,81,53,28,29.89,29.69,29.61,10,10,10,31,19,39,0.00,0,,146
2011-10-8,81,68,57,59,43,36,70,40,21,30.00,29.83,29.70,10,10,10,18,11,23,0.00,2,Thunderstorm,300
2011-10-9,77,66,57,54,51,44,87,62,34,30.06,29.92,29.83,10,10,10,12,6,,0.00,5,Rain,57
2011-10-10,79,68,57,57,54,48,100,73,36,30.12,30.00,29.84,10,10,10,13,8,20,0.00,4,,118
2011-10-11,88,72,57,59,53,33,94,62,18,29.93,29.78,29.64,10,9,5,12,8,,0.00,0,,150
2011-10-12,89,70,51,57,37,27,97,42,11,29.91,29.79,29.72,10,10,9,14,7,23,0.00,0,,352
2011-10-13,87,68,50,54,39,29,72,39,14,30.10,29.93,29.83,10,10,10,14,5,21,0.00,0,,125
2011-10-14,93,70,50,48,37,24,74,36,9,29.96,29.83,29.75,10,10,10,12,7,,0.00,0,,141
2011-10-15,88,69,51,47,43,39,67,41,20,30.11,29.93,29.83,10,10,10,13,7,,0.00,0,,77
2011-10-16,93,74,54,50,42,27,77,39,9,30.05,29.91,29.80,10,10,10,12,7,,0.00,0,,145
2011-10-17,97,72,48,52,37,20,86,37,7,29.96,29.81,29.62,10,8,1,31,12,48,0.00,2,,353
2011-10-18,70,58,46,41,33,24,68,40,19,30.25,30.15,29.95,10,10,10,20,11,28,0.00,0,,8
2011-10-19,73,55,37,25,22,20,52,30,15,30.27,30.13,29.96,10,10,10,12,6,,0.00,0,,83
2011-10-20,91,68,44,28,25,23,46,23,9,30.04,29.91,29.80,10,10,10,14,10,22,0.00,0,,250
2011-10-21,90,68,46,32,26,23,46,24,9,30.05,29.97,29.90,10,10,10,9,5,,0.00,0,,324
2011-10-22,91,68,46,40,26,20,50,26,8,29.99,29.91,29.83,10,10,10,12,5,17,0.00,0,,328
2011-10-23,84,67,50,48,36,20,59,34,18,30.17,30.01,29.91,10,10,10,12,7,,0.00,0,,42
2011-10-24,90,72,55,53,43,31,74,41,13,30.09,30.02,29.91,10,10,10,18,10,23,0.00,0,,131
2011-10-25,93,75,59,51,46,42,69,40,18,29.96,29.87,29.77,10,10,10,20,10,24,0.00,0,,182
2011-10-26,87,75,63,52,47,41,58,40,20,29.95,29.77,29.66,10,10,10,20,8,31,0.00,2,Rain,86
2011-10-27,59,50,42,46,41,37,100,83,62,30.22,30.08,29.75,10,9,2,26,16,37,0.04,7,Rain-Thunderstorm,18
2011-10-28,61,52,44,39,36,33,76,60,39,30.36,30.26,30.20,10,10,10,7,1,,0.00,5,,50
2011-10-29,71,50,30,35,30,26,85,52,23,30.28,30.13,29.95,10,10,10,15,4,17,0.00,0,,142
2011-10-30,77,56,37,38,33,27,73,46,22,30.17,30.05,29.94,10,10,10,20,6,18,0.00,0,,4
2011-10-31,78,57,37,45,35,30,83,48,18,30.20,30.08,29.96,10,10,10,14,6,16,0.00,0,,97